Weather

Clear
Wednesday 01/23 0%
Clear
Clear. Lows overnight in the upper 20s.
Clear
Thursday 01/24 0%
Clear
Sunny skies. High 47F. Winds NNW at 10 to 15 mph.
Clear
Friday 01/25 0%
Clear
Sunshine and some clouds. High 47F. Winds NW at 5 to 10 mph.
Clear
Saturday 01/26 0%
Clear
Sunny skies. High 48F. Winds NNW at 5 to 10 mph.
Partly Cloudy
Sunday 01/27 0%
Partly Cloudy
Intervals of clouds and sunshine. High 52F. Winds NW at 5 to 10 mph.

 

 

For a detailed forecast click the banner below.

ballooncastlogo

 

 

Available data for KABQ from the past 2 hours
ALBUQUERQUE, NM
Metar
KABQ 240152Z 04005KT 10SM CLR 03/M11 A3011 RMK AO2 SLP206 T00281111

01:52 UTC

Wind: 40° 5kt

Visibility: 10 SM

Sky:

Temp: 3 deg C / 37.4 deg F

Dewpoint: -11 deg C / 12.2 deg F

Pressure: 30.11 inHg

TAF
KABQ 232320Z 2400/2424 26008KT P6SM FEW250 TEMPO 2400/2402 30011G17KT FM240500 35009KT P6SM SKC